createdAt,value
2018-11-02T00:01:53.750Z,101140.08
2018-11-02T00:04:22.607Z,101139.74
2018-11-02T00:06:52.041Z,101141.91
2018-11-02T00:09:20.885Z,101153.69
2018-11-02T00:11:49.809Z,101149.48
2018-11-02T00:14:18.644Z,101155.64
2018-11-02T00:16:47.618Z,101153.47
2018-11-02T00:19:20.935Z,101154.95
2018-11-02T00:21:49.814Z,101161.20
2018-11-02T00:24:18.621Z,101157.27
2018-11-02T00:26:47.783Z,101154.11
2018-11-02T00:29:21.027Z,101162.61
2018-11-02T00:31:50.013Z,101150.70
2018-11-02T00:34:18.807Z,101148.73
2018-11-02T00:36:47.617Z,101151.36
2018-11-02T00:39:16.886Z,101151.36
2018-11-02T00:41:45.759Z,101149.73
2018-11-02T00:44:15.021Z,101157.89
2018-11-02T00:46:43.821Z,101157.18
2018-11-02T00:49:12.838Z,101150.84
2018-11-02T00:51:41.636Z,101157.70
2018-11-02T00:54:10.608Z,101160.33
2018-11-02T00:56:39.525Z,101165.13
2018-11-02T00:59:08.397Z,101162.56
2018-11-02T01:01:37.236Z,101167.88
2018-11-02T01:04:06.269Z,101160.23
2018-11-02T01:06:35.125Z,101163.85
2018-11-02T01:09:05.220Z,101166.91
2018-11-02T01:11:34.027Z,101162.48
2018-11-02T01:14:03.148Z,101167.84
2018-11-02T01:16:31.980Z,101160.94
2018-11-02T01:19:00.904Z,101156.07
2018-11-02T01:21:29.750Z,101157.19
2018-11-02T01:23:58.906Z,101158.33
2018-11-02T01:26:27.808Z,101157.54
2018-11-02T01:28:56.747Z,101160.19
2018-11-02T01:31:25.619Z,101161.73
2018-11-02T01:33:54.401Z,101164.58
2018-11-02T01:36:23.376Z,101164.00
2018-11-02T01:38:52.179Z,101159.48
2018-11-02T01:41:21.077Z,101166.97
2018-11-02T01:43:49.988Z,101176.16
2018-11-02T01:46:18.828Z,101178.44
2018-11-02T01:48:47.992Z,101185.92
2018-11-02T01:51:17.175Z,101193.19
2018-11-02T01:53:46.027Z,101187.98
2018-11-02T01:56:14.962Z,101190.24
2018-11-02T01:58:44.705Z,101197.28
2018-11-02T02:01:13.522Z,101202.40
2018-11-02T02:03:42.338Z,101205.91
2018-11-02T02:06:11.227Z,101204.56
2018-11-02T02:08:40.228Z,101207.05
2018-11-02T02:11:09.122Z,101203.06
2018-11-02T02:13:38.018Z,101202.84
2018-11-02T02:16:06.888Z,101207.60
2018-11-02T02:18:35.747Z,101208.98
2018-11-02T02:21:05.076Z,101206.84
2018-11-02T02:23:33.889Z,101211.15
2018-11-02T02:26:02.811Z,101207.87
2018-11-02T02:28:32.017Z,101208.88
2018-11-02T02:31:00.859Z,101206.84
2018-11-02T02:33:30.082Z,101212.52
2018-11-02T02:35:58.933Z,101207.73
2018-11-02T02:38:27.789Z,101204.47
2018-11-02T02:40:56.591Z,101211.84
2018-11-02T02:43:25.457Z,101211.84
2018-11-02T02:45:54.314Z,101214.58
2018-11-02T02:48:23.171Z,101217.74
2018-11-02T02:50:52.031Z,101225.69
2018-11-02T02:53:20.914Z,101232.06
2018-11-02T02:55:49.743Z,101236.38
2018-11-02T02:58:18.969Z,101235.70
2018-11-02T03:00:47.792Z,101233.86
2018-11-02T03:03:16.656Z,101234.77
2018-11-02T03:05:45.517Z,101242.17
2018-11-02T03:08:14.408Z,101240.56
2018-11-02T03:10:43.444Z,101244.31
2018-11-02T03:13:12.485Z,101241.59
2018-11-02T03:15:41.296Z,101227.73
2018-11-02T03:18:10.219Z,101212.66
2018-11-02T03:20:39.083Z,101205.70
2018-11-02T03:23:07.988Z,101202.32
2018-11-02T03:25:36.789Z,101222.85
2018-11-02T03:28:05.760Z,101237.84
2018-11-02T03:30:34.914Z,101240.00
2018-11-02T03:33:03.769Z,101239.86
2018-11-02T03:35:32.716Z,101251.55
2018-11-02T03:38:01.560Z,101252.91
2018-11-02T03:40:30.474Z,101257.91
2018-11-02T03:42:59.349Z,101258.95
2018-11-02T03:45:28.229Z,101267.45
2018-11-02T03:47:57.123Z,101282.22
2018-11-02T03:50:26.619Z,101281.78
2018-11-02T03:52:55.472Z,101282.92
2018-11-02T03:55:24.963Z,101284.73
2018-11-02T03:57:53.750Z,101283.14
2018-11-02T04:00:22.651Z,101291.59
2018-11-02T04:02:51.485Z,101287.16
2018-11-02T04:05:20.346Z,101284.66
2018-11-02T04:07:49.203Z,101296.36
2018-11-02T04:10:18.088Z,101292.37
2018-11-02T04:12:46.993Z,101289.30
2018-11-02T04:15:15.862Z,101282.48
2018-11-02T04:17:44.758Z,101281.02
2018-11-02T04:20:13.646Z,101291.69
2018-11-02T04:22:42.450Z,101293.61
2018-11-02T04:25:11.656Z,101291.91
2018-11-02T04:27:40.994Z,101291.78
2018-11-02T04:30:10.195Z,101298.17
2018-11-02T04:32:39.048Z,101297.47
2018-11-02T04:35:08.720Z,101299.75
2018-11-02T04:37:37.651Z,101305.88
2018-11-02T04:40:07.213Z,101305.64
2018-11-02T04:42:36.064Z,101310.90
2018-11-02T04:45:05.138Z,101318.50
2018-11-02T04:47:34.314Z,101318.84
2018-11-02T04:50:03.373Z,101325.43
2018-11-02T04:52:32.287Z,101320.20
2018-11-02T04:55:01.086Z,101319.43
2018-11-02T04:57:29.940Z,101313.77
2018-11-02T04:59:58.764Z,101320.57
2018-11-02T05:02:28.664Z,101322.03
2018-11-02T05:04:58.090Z,101321.61
2018-11-02T05:07:26.932Z,101322.28
2018-11-02T05:09:55.810Z,101331.39
2018-11-02T05:12:24.943Z,101337.05
2018-11-02T05:14:53.802Z,101334.23
2018-11-02T05:17:22.645Z,101339.66
2018-11-02T05:19:51.553Z,101355.53
2018-11-02T05:22:20.432Z,101350.94
2018-11-02T05:24:49.249Z,101358.38
2018-11-02T05:27:18.222Z,101354.53
2018-11-02T05:29:53.148Z,101355.31
2018-11-02T05:32:21.992Z,101360.65
2018-11-02T05:34:50.930Z,101363.20
2018-11-02T05:37:19.836Z,101366.70
2018-11-02T05:39:48.866Z,101369.68
2018-11-02T05:42:17.814Z,101372.08
2018-11-02T05:44:48.546Z,101379.23
2018-11-02T05:47:17.680Z,101375.33
2018-11-02T05:49:46.796Z,101383.53
2018-11-02T05:52:15.646Z,101389.55
2018-11-02T05:54:44.470Z,101398.89
2018-11-02T05:57:19.696Z,101409.34
2018-11-02T05:59:54.573Z,101410.93
2018-11-02T06:02:29.398Z,101414.34
2018-11-02T06:04:58.836Z,101420.37
2018-11-02T06:07:27.621Z,101428.43
2018-11-02T06:09:56.567Z,101436.39
2018-11-02T06:12:25.351Z,101442.54
2018-11-02T06:14:54.215Z,101446.15
2018-11-02T06:17:28.981Z,101448.45
2018-11-02T06:19:58.295Z,101460.95
2018-11-02T06:22:27.116Z,101465.70
2018-11-02T06:24:55.977Z,101460.59
2018-11-02T06:27:24.792Z,101473.11
2018-11-02T06:29:53.629Z,101477.56
2018-11-02T06:32:22.455Z,101487.09
2018-11-02T06:34:52.262Z,101487.50
2018-11-02T06:37:21.037Z,101495.25
2018-11-02T06:39:49.824Z,101508.77
2018-11-02T06:42:18.704Z,101513.19
2018-11-02T06:44:47.757Z,101525.69
2018-11-02T06:47:16.655Z,101525.74
2018-11-02T06:49:45.509Z,101535.29
2018-11-02T06:52:14.344Z,101535.88
2018-11-02T06:54:43.178Z,101543.03
2018-11-02T06:57:12.136Z,101551.50
2018-11-02T06:59:41.209Z,101555.00
2018-11-02T07:02:09.840Z,101575.23
2018-11-02T07:04:38.627Z,101580.52
2018-11-02T07:07:13.441Z,101588.70
2018-11-02T07:09:42.324Z,101600.76
2018-11-02T07:12:11.210Z,101604.20
2018-11-02T07:14:40.131Z,101614.86
2018-11-02T07:17:09.004Z,101631.92
2018-11-02T07:19:37.796Z,101634.47
2018-11-02T07:22:07.050Z,101645.69
2018-11-02T07:24:35.908Z,101657.41
2018-11-02T07:27:04.853Z,101667.64
2018-11-02T07:29:33.649Z,101673.52
2018-11-02T07:32:02.596Z,101674.83
2018-11-02T07:34:31.580Z,101688.14
2018-11-02T07:37:00.332Z,101705.23
2018-11-02T07:39:31.618Z,101698.07
2018-11-02T07:42:00.712Z,101703.73
2018-11-02T07:44:29.586Z,101709.08
2018-11-02T07:46:59.024Z,101709.50
2018-11-02T07:49:28.251Z,101721.31
2018-11-02T07:51:57.048Z,101729.97
2018-11-02T07:54:25.930Z,101737.20
2018-11-02T07:56:55.661Z,101747.71
2018-11-02T07:59:24.792Z,101750.75
2018-11-02T08:01:53.654Z,101760.77
2018-11-02T08:04:22.523Z,101760.26
2018-11-02T08:06:51.365Z,101752.83
2018-11-02T08:09:20.198Z,101762.81
2018-11-02T08:11:49.056Z,101754.28
2018-11-02T08:14:17.965Z,101765.70
2018-11-02T08:16:46.740Z,101765.55
2018-11-02T08:19:15.566Z,101771.09
2018-11-02T08:21:44.360Z,101784.96
2018-11-02T08:24:13.583Z,101792.55
2018-11-02T08:26:42.390Z,101793.66
2018-11-02T08:29:11.222Z,101797.67
2018-11-02T08:31:40.002Z,101802.58
2018-11-02T08:34:08.863Z,101807.15
2018-11-02T08:36:37.689Z,101811.16
2018-11-02T08:39:09.388Z,101805.56
2018-11-02T08:41:38.254Z,101824.81
2018-11-02T08:44:07.444Z,101824.69
2018-11-02T08:46:36.425Z,101835.81
2018-11-02T08:49:05.579Z,101832.65
2018-11-02T08:51:34.472Z,101842.47
2018-11-02T08:54:03.282Z,101845.47
2018-11-02T08:56:32.199Z,101850.37
2018-11-02T08:59:01.009Z,101849.36
2018-11-02T09:01:30.027Z,101854.47
2018-11-02T09:03:58.889Z,101858.66
2018-11-02T09:06:28.083Z,101862.54
2018-11-02T09:08:56.892Z,101861.64
2018-11-02T09:11:25.776Z,101856.61
2018-11-02T09:13:54.663Z,101860.06
2018-11-02T09:16:24.434Z,101858.88
2018-11-02T09:18:53.244Z,101860.66
2018-11-02T09:21:22.113Z,101867.28
2018-11-02T09:23:50.981Z,101860.33
2018-11-02T09:26:19.916Z,101873.69
2018-11-02T09:28:48.763Z,101880.31
2018-11-02T09:31:17.989Z,101881.23
2018-11-02T09:33:46.791Z,101883.97
2018-11-02T09:36:15.936Z,101892.34
2018-11-02T09:38:44.951Z,101899.52
2018-11-02T09:41:14.134Z,101902.97
2018-11-02T09:43:43.162Z,101904.84
2018-11-02T09:46:11.992Z,101913.11
2018-11-02T09:48:40.873Z,101920.16
2018-11-02T09:51:09.827Z,101930.67
2018-11-02T09:53:38.702Z,101913.52
2018-11-02T09:56:07.510Z,101939.14
2018-11-02T09:58:36.416Z,101943.28
2018-11-02T10:01:05.705Z,101945.63
2018-11-02T10:03:34.716Z,101954.52
2018-11-02T10:06:03.939Z,101952.94
2018-11-02T10:08:32.861Z,101960.11
2018-11-02T10:11:01.736Z,101965.58
2018-11-02T10:13:30.625Z,101969.44
2018-11-02T10:15:59.526Z,101976.71
2018-11-02T10:18:28.476Z,101984.52
2018-11-02T10:20:57.360Z,101985.47
2018-11-02T10:23:26.290Z,101990.50
2018-11-02T10:25:55.331Z,101997.66
2018-11-02T10:28:24.472Z,101998.56
2018-11-02T10:30:53.444Z,102005.06
2018-11-02T10:33:22.415Z,102001.30
2018-11-02T10:35:52.240Z,102007.33
2018-11-02T10:38:21.092Z,102010.07
2018-11-02T10:40:55.561Z,102021.64
2018-11-02T10:43:26.008Z,102024.59
2018-11-02T10:45:59.006Z,102024.89
2018-11-02T10:48:28.839Z,102029.92
2018-11-02T10:50:58.380Z,102034.81
2018-11-02T10:53:27.249Z,102045.95
2018-11-02T10:55:56.125Z,102052.11
2018-11-02T10:58:24.945Z,102041.84
2018-11-02T11:00:59.335Z,102051.39
2018-11-02T11:03:28.278Z,102051.20
2018-11-02T11:05:57.520Z,102061.69
2018-11-02T11:08:26.419Z,102064.42
2018-11-02T11:10:55.341Z,102063.45
2018-11-02T11:13:24.626Z,102077.36
2018-11-02T11:15:53.186Z,102076.92
2018-11-02T11:18:22.063Z,102080.03
2018-11-02T11:20:51.023Z,102091.28
2018-11-02T11:23:20.472Z,102093.16
2018-11-02T11:25:49.918Z,102094.59
2018-11-02T11:28:18.844Z,102112.75
2018-11-02T11:30:48.641Z,102119.16
2018-11-02T11:33:17.593Z,102113.17
2018-11-02T11:35:46.468Z,102120.05
2018-11-02T11:38:15.367Z,102124.80
2018-11-02T11:40:44.381Z,102130.02
2018-11-02T11:43:13.321Z,102134.02
2018-11-02T11:45:42.254Z,102132.02
2018-11-02T11:48:11.129Z,102130.59
2018-11-02T11:50:40.075Z,102132.78
2018-11-02T11:53:09.061Z,102135.03
2018-11-02T11:55:38.320Z,102135.02
2018-11-02T11:58:07.266Z,102128.17
2018-11-02T12:00:36.157Z,102143.22
2018-11-02T12:03:05.134Z,102143.70
2018-11-02T12:05:34.041Z,102143.74
2018-11-02T12:08:03.005Z,102149.52
2018-11-02T12:10:31.937Z,102149.13
2018-11-02T12:13:00.861Z,102147.58
2018-11-02T12:15:30.080Z,102153.36
2018-11-02T12:17:59.049Z,102153.83
2018-11-02T12:20:29.255Z,102159.17
2018-11-02T12:23:01.203Z,102163.94
2018-11-02T12:25:30.183Z,102167.27
2018-11-02T12:27:59.199Z,102166.97
2018-11-02T12:30:28.082Z,102175.05
2018-11-02T12:32:56.891Z,102181.28
2018-11-02T12:35:25.805Z,102183.43
2018-11-02T12:37:54.642Z,102183.47
2018-11-02T12:40:24.558Z,102187.66
2018-11-02T12:42:54.336Z,102180.43
2018-11-02T12:45:23.534Z,102184.73
2018-11-02T12:47:52.454Z,102189.24
2018-11-02T12:50:25.545Z,102192.23
2018-11-02T12:52:55.784Z,102200.95
2018-11-02T12:55:24.797Z,102197.44
2018-11-02T12:57:54.636Z,102211.89
2018-11-02T13:00:25.603Z,102206.98
2018-11-02T13:02:54.956Z,102206.05
2018-11-02T13:05:23.967Z,102207.81
2018-11-02T13:07:52.889Z,102212.28
2018-11-02T13:10:22.680Z,102212.03
2018-11-02T13:12:51.492Z,102217.95
2018-11-02T13:15:21.799Z,102216.29
2018-11-02T13:17:50.948Z,102213.72
2018-11-02T13:20:19.944Z,102214.00
2018-11-02T13:22:49.839Z,102221.80
2018-11-02T13:25:19.951Z,102221.80
2018-11-02T13:27:49.699Z,102224.88
2018-11-02T13:30:18.759Z,102231.64
2018-11-02T13:32:48.235Z,102233.14
2018-11-02T13:35:18.512Z,102237.92
2018-11-02T13:37:47.942Z,102232.28
2018-11-02T13:40:17.721Z,102241.02
2018-11-02T13:42:46.743Z,102244.78
2018-11-02T13:45:21.718Z,102248.22
2018-11-02T13:47:50.628Z,102250.20
2018-11-02T13:50:19.602Z,102257.44
2018-11-02T13:52:48.537Z,102255.66
2018-11-02T13:55:17.353Z,102250.97
2018-11-02T13:57:46.262Z,102258.46
2018-11-02T14:00:16.673Z,102258.00
2018-11-02T14:02:45.593Z,102266.30
2018-11-02T14:05:15.589Z,102265.44
2018-11-02T14:07:44.530Z,102265.07
2018-11-02T14:10:13.764Z,102268.84
2018-11-02T14:12:42.716Z,102267.55
2018-11-02T14:15:12.862Z,102270.76
2018-11-02T14:17:42.244Z,102283.02
2018-11-02T14:20:12.372Z,102286.60
2018-11-02T14:22:41.338Z,102289.67
2018-11-02T14:25:13.205Z,102294.58
2018-11-02T14:27:42.209Z,102296.69
2018-11-02T14:30:13.000Z,102306.81
2018-11-02T14:32:41.808Z,102303.59
2018-11-02T14:35:10.711Z,102310.43
2018-11-02T14:37:39.703Z,102321.11
2018-11-02T14:40:09.776Z,102327.12
2018-11-02T14:42:39.371Z,102332.90
2018-11-02T14:45:15.264Z,102336.59
2018-11-02T14:47:45.289Z,102335.48
2018-11-02T14:50:14.283Z,102348.13
2018-11-02T14:52:43.176Z,102349.67
2018-11-02T14:55:12.073Z,102368.06
2018-11-02T14:57:40.885Z,102376.38
2018-11-02T15:00:11.097Z,102382.72
2018-11-02T15:02:40.778Z,102392.61
2018-11-02T15:05:11.123Z,102402.55
2018-11-02T15:07:40.416Z,102402.39
2018-11-02T15:10:09.393Z,102409.30
2018-11-02T15:12:38.668Z,102412.03
2018-11-02T15:15:08.440Z,102414.11
2018-11-02T15:17:37.344Z,102418.30
2018-11-02T15:20:09.809Z,102417.10
2018-11-02T15:22:38.669Z,102425.78
2018-11-02T15:25:07.974Z,102436.62
2018-11-02T15:27:37.036Z,102436.13
2018-11-02T15:30:09.342Z,102441.36
2018-11-02T15:32:38.131Z,102437.27
2018-11-02T15:35:08.082Z,102445.30
2018-11-02T15:37:36.972Z,102444.88
2018-11-02T15:40:07.845Z,102441.36
2018-11-02T15:42:36.753Z,102441.20
2018-11-02T15:45:08.680Z,102449.35
2018-11-02T15:47:37.644Z,102459.08
2018-11-02T15:50:08.125Z,102461.58
2018-11-02T15:52:37.638Z,102466.81
2018-11-02T15:55:07.815Z,102467.63
2018-11-02T15:57:36.946Z,102470.64
2018-11-02T16:00:11.433Z,102472.53
2018-11-02T16:02:40.355Z,102476.20
2018-11-02T16:05:09.684Z,102481.83
2018-11-02T16:07:38.749Z,102482.92
2018-11-02T16:10:09.242Z,102492.98
2018-11-02T16:12:38.149Z,102487.23
2018-11-02T16:15:08.473Z,102482.53
2018-11-02T16:17:37.691Z,102500.01
2018-11-02T16:20:09.161Z,102496.91
2018-11-02T16:22:38.047Z,102494.06
2018-11-02T16:25:07.193Z,102491.56
2018-11-02T16:27:36.173Z,102495.25
2018-11-02T16:30:05.376Z,102494.81
2018-11-02T16:32:34.221Z,102497.64
2018-11-02T16:35:04.063Z,102492.23
2018-11-02T16:37:32.976Z,102486.23
2018-11-02T16:40:01.852Z,102479.11
2018-11-02T16:42:30.712Z,102477.95
2018-11-02T16:45:08.510Z,102473.83
2018-11-02T16:47:37.600Z,102479.64
2018-11-02T16:50:08.200Z,102480.53
2018-11-02T16:52:37.018Z,102476.06
2018-11-02T16:55:06.261Z,102480.18
2018-11-02T16:57:35.167Z,102484.76
2018-11-02T17:00:07.232Z,102485.84
2018-11-02T17:02:36.167Z,102492.70
2018-11-02T17:05:07.676Z,102497.80
2018-11-02T17:07:36.364Z,102508.70
2018-11-02T17:10:06.759Z,102510.98
2018-11-02T17:12:35.622Z,102515.81
2018-11-02T17:15:04.697Z,102516.16
2018-11-02T17:17:35.812Z,102515.12
2018-11-02T17:20:07.203Z,102523.30
2018-11-02T17:22:37.007Z,102522.08
2018-11-02T17:25:07.108Z,102524.69
2018-11-02T17:27:36.395Z,102530.25
2018-11-02T17:30:07.227Z,102520.98
2018-11-02T17:32:35.999Z,102529.73
2018-11-02T17:35:05.008Z,102535.95
2018-11-02T17:37:34.111Z,102542.41
2018-11-02T17:40:03.005Z,102537.05
2018-11-02T17:42:31.886Z,102542.80
2018-11-02T17:45:07.687Z,102540.53
2018-11-02T17:47:37.737Z,102551.94
2018-11-02T17:50:08.141Z,102554.19
2018-11-02T17:52:36.959Z,102565.31
2018-11-02T17:55:05.797Z,102574.97
2018-11-02T17:57:34.744Z,102582.62
2018-11-02T18:00:04.774Z,102586.58
2018-11-02T18:02:33.669Z,102594.34
2018-11-02T18:05:02.548Z,102592.91
2018-11-02T18:07:31.410Z,102589.22
2018-11-02T18:10:00.221Z,102585.09
2018-11-02T18:12:29.177Z,102589.52
2018-11-02T18:14:58.027Z,102594.86
2018-11-02T18:17:26.903Z,102598.64
2018-11-02T18:19:55.683Z,102605.38
2018-11-02T18:22:24.611Z,102612.33
2018-11-02T18:24:53.457Z,102623.27
2018-11-02T18:27:22.355Z,102616.61
2018-11-02T18:29:51.147Z,102615.98
2018-11-02T18:32:20.019Z,102620.19
2018-11-02T18:34:48.855Z,102628.08
2018-11-02T18:37:17.800Z,102637.20
2018-11-02T18:39:46.752Z,102640.89
2018-11-02T18:42:15.635Z,102645.45
2018-11-02T18:44:44.443Z,102648.93
2018-11-02T18:47:13.313Z,102651.98
2018-11-02T18:49:42.211Z,102652.47
2018-11-02T18:52:11.200Z,102656.16
2018-11-02T18:54:40.167Z,102660.76
2018-11-02T18:57:09.629Z,102667.87
2018-11-02T18:59:38.987Z,102670.37
2018-11-02T19:02:07.904Z,102676.84
2018-11-02T19:04:36.797Z,102680.56
2018-11-02T19:07:05.830Z,102677.67
2018-11-02T19:09:34.676Z,102676.91
2018-11-02T19:12:04.502Z,102683.89
2018-11-02T19:14:33.934Z,102684.52
2018-11-02T19:17:02.906Z,102696.95
2018-11-02T19:19:31.759Z,102700.27
2018-11-02T19:22:00.581Z,102696.01
2018-11-02T19:24:29.420Z,102697.37
2018-11-02T19:26:58.340Z,102701.70
2018-11-02T19:29:27.406Z,102699.76
2018-11-02T19:31:56.211Z,102697.39
2018-11-02T19:34:25.482Z,102698.33
2018-11-02T19:36:54.591Z,102709.22
2018-11-02T19:39:23.636Z,102711.27
2018-11-02T19:41:52.429Z,102718.23
2018-11-02T19:44:21.911Z,102725.86
2018-11-02T19:46:50.867Z,102738.51
2018-11-02T19:49:19.767Z,102735.02
2018-11-02T19:51:48.723Z,102735.09
2018-11-02T19:54:18.246Z,102738.75
2018-11-02T19:56:47.367Z,102744.59
2018-11-02T19:59:17.260Z,102753.57
2018-11-02T20:01:46.422Z,102757.78
2018-11-02T20:04:15.942Z,102765.97
2018-11-02T20:06:45.094Z,102768.05
2018-11-02T20:09:14.036Z,102771.30
2018-11-02T20:11:43.306Z,102774.23
2018-11-02T20:14:12.760Z,102765.34
2018-11-02T20:16:42.243Z,102768.28
2018-11-02T20:19:11.884Z,102769.58
2018-11-02T20:21:40.658Z,102769.50
2018-11-02T20:24:10.124Z,102782.59
2018-11-02T20:26:41.755Z,102781.06
2018-11-02T20:29:11.284Z,102785.19
2018-11-02T20:31:40.595Z,102789.11
2018-11-02T20:34:09.432Z,102790.47
2018-11-02T20:36:38.845Z,102801.89
2018-11-02T20:39:10.700Z,102801.14
2018-11-02T20:41:40.196Z,102801.20
2018-11-02T20:44:09.276Z,102797.80
2018-11-02T20:46:38.192Z,102803.48
2018-11-02T20:49:07.330Z,102804.22
2018-11-02T20:51:36.677Z,102809.23
2018-11-02T20:54:05.994Z,102811.23
2018-11-02T20:56:35.002Z,102810.03
2018-11-02T20:59:04.102Z,102811.61
2018-11-02T21:01:33.259Z,102808.14
2018-11-02T21:04:02.148Z,102813.41
2018-11-02T21:06:30.970Z,102819.13
2018-11-02T21:09:00.231Z,102818.31
2018-11-02T21:11:28.832Z,102811.22
2018-11-02T21:13:57.984Z,102807.97
2018-11-02T21:16:26.865Z,102812.39
2018-11-02T21:18:55.688Z,102821.70
2018-11-02T21:21:24.504Z,102829.04
2018-11-02T21:23:53.369Z,102825.55
2018-11-02T21:26:22.237Z,102829.95
2018-11-02T21:28:51.191Z,102832.46
2018-11-02T21:31:20.039Z,102830.56
2018-11-02T21:33:48.928Z,102829.71
2018-11-02T21:36:17.746Z,102833.90
2018-11-02T21:38:46.682Z,102829.50
2018-11-02T21:41:15.464Z,102836.86
2018-11-02T21:43:44.436Z,102839.86
2018-11-02T21:46:13.355Z,102838.58
2018-11-02T21:48:42.195Z,102839.40
2018-11-02T21:51:11.075Z,102828.80
2018-11-02T21:53:40.882Z,102829.87
2018-11-02T21:56:09.795Z,102833.47
2018-11-02T21:58:38.657Z,102829.69
2018-11-02T22:01:07.787Z,102828.93
2018-11-02T22:03:36.868Z,102824.83
2018-11-02T22:06:05.856Z,102831.11
2018-11-02T22:08:34.871Z,102828.70
2018-11-02T22:11:04.108Z,102833.08
2018-11-02T22:13:32.913Z,102830.91
2018-11-02T22:16:01.814Z,102833.89
2018-11-02T22:18:30.668Z,102833.62
2018-11-02T22:20:59.764Z,102838.47
2018-11-02T22:23:28.665Z,102838.80
2018-11-02T22:25:57.585Z,102830.66
2018-11-02T22:28:26.750Z,102838.23
2018-11-02T22:30:55.653Z,102834.13
2018-11-02T22:33:24.970Z,102832.30
2018-11-02T22:35:53.821Z,102827.39
2018-11-02T22:38:22.669Z,102827.34
2018-11-02T22:40:51.539Z,102824.08
2018-11-02T22:43:20.347Z,102830.09
2018-11-02T22:45:52.294Z,102827.63
2018-11-02T22:48:24.003Z,102838.54
2018-11-02T22:50:54.441Z,102836.08
2018-11-02T22:53:23.479Z,102848.02
2018-11-02T22:55:52.608Z,102849.40
2018-11-02T22:58:21.894Z,102856.70
2018-11-02T23:00:56.232Z,102862.12
2018-11-02T23:03:25.096Z,102862.12
2018-11-02T23:05:54.019Z,102862.09
2018-11-02T23:08:23.167Z,102858.05
2018-11-02T23:10:52.002Z,102861.06
2018-11-02T23:13:20.880Z,102857.85
2018-11-02T23:15:49.719Z,102862.17
2018-11-02T23:18:19.232Z,102855.11
2018-11-02T23:20:48.684Z,102857.82
2018-11-02T23:23:17.864Z,102861.09
2018-11-02T23:25:46.639Z,102858.39
2018-11-02T23:28:15.511Z,102851.86
2018-11-02T23:30:44.423Z,102862.16
2018-11-02T23:33:13.758Z,102858.64
2018-11-02T23:35:42.899Z,102855.39
2018-11-02T23:38:11.778Z,102855.11
2018-11-02T23:40:40.584Z,102856.75
2018-11-02T23:43:09.548Z,102859.20
2018-11-02T23:45:38.343Z,102861.61
2018-11-02T23:48:12.606Z,102859.98
2018-11-02T23:50:41.477Z,102846.48
2018-11-02T23:53:10.587Z,102853.21
2018-11-02T23:55:39.418Z,102853.98
2018-11-02T23:58:08.354Z,102854.25
